FJI357 NGFU-NGTA
Flight info
| Callsign | FJI357 |
|---|---|
| Flight time | N/A |
| Altitude | 34000 |
| Route | BODKI DCT SABBA |
| Aircraft | A320/M-SDE3FGHIRWY/LB1 |
Departure
| Time | 2026-05-07 13:55 |
|---|---|
| Airport | Funafuti International Airport (NGFU) |
Arrival
| Time | N/A |
|---|---|
| Airport | Bonriki International Airport (NGTA) |
| Time | Latitude | Longitude | Altitude | Speed | Heading |
|---|---|---|---|---|---|
| 2026-05-07 13:42 | -8.52477 | 179.19531 | 11 ft | 0 kts | 251° |
| 2026-05-07 13:47 | -8.52473 | 179.19544 | 11 ft | 2 kts | 258° |
| 2026-05-07 13:47 | -8.52471 | 179.19553 | 12 ft | 0 kts | 250° |
| 2026-05-07 13:51 | -8.52473 | 179.19550 | 11 ft | 1 kts | 236° |
| 2026-05-07 13:51 | -8.52480 | 179.19552 | 11 ft | 0 kts | 172° |
| 2026-05-07 13:51 | -8.52488 | 179.19556 | 13 ft | 5 kts | 156° |
| 2026-05-07 13:52 | -8.52531 | 179.19550 | 11 ft | 9 kts | 210° |
| 2026-05-07 13:52 | -8.52590 | 179.19499 | 9 ft | 12 kts | 222° |
| 2026-05-07 13:52 | -8.52645 | 179.19449 | 10 ft | 10 kts | 222° |
| 2026-05-07 13:52 | -8.52690 | 179.19406 | 13 ft | 10 kts | 224° |
| 2026-05-07 13:53 | -8.52749 | 179.19350 | 12 ft | 12 kts | 223° |
| 2026-05-07 13:53 | -8.52807 | 179.19295 | 12 ft | 11 kts | 223° |
| 2026-05-07 13:53 | -8.52851 | 179.19255 | 12 ft | 6 kts | 220° |
| 2026-05-07 13:53 | -8.52881 | 179.19242 | 13 ft | 4 kts | 195° |
| 2026-05-07 13:54 | -8.52882 | 179.19233 | 13 ft | 1 kts | 288° |
| 2026-05-07 13:54 | -8.52869 | 179.19238 | 17 ft | 5 kts | 26° |
| 2026-05-07 13:54 | -8.52844 | 179.19259 | 12 ft | 0 kts | 44° |
| 2026-05-07 13:55 | -8.52784 | 179.19316 | 12 ft | 48 kts | 43° |
| 2026-05-07 13:55 | -8.52333 | 179.19740 | 13 ft | 125 kts | 43° |
| 2026-05-07 13:55 | -8.51574 | 179.20459 | 298 ft | 154 kts | 45° |
| 2026-05-07 13:55 | -8.50838 | 179.21123 | 1281 ft | 134 kts | 45° |
| 2026-05-07 13:56 | -8.50145 | 179.21750 | 1904 ft | 129 kts | 49° |
| 2026-05-07 13:56 | -8.49977 | 179.21916 | 1932 ft | 122 kts | 51° |